createdAt,value
2022-11-08T00:01:39.736Z,14.55
2022-11-08T00:04:09.476Z,15.07
2022-11-08T00:06:54.584Z,15.40
2022-11-08T00:09:39.698Z,15.13
2022-11-08T00:12:25.419Z,15.29
2022-11-08T00:14:52.572Z,14.76
2022-11-08T00:17:20.154Z,14.32
2022-11-08T00:19:46.825Z,14.48
2022-11-08T00:22:13.912Z,14.67
2022-11-08T00:24:40.516Z,14.58
2022-11-08T00:27:09.678Z,15.00
2022-11-08T00:29:37.304Z,14.50
2022-11-08T00:32:08.589Z,14.65
2022-11-08T00:34:35.421Z,14.47
2022-11-08T00:37:02.886Z,14.86
2022-11-08T00:39:29.382Z,14.76
2022-11-08T00:41:55.926Z,14.52
2022-11-08T00:44:22.440Z,15.18
2022-11-08T00:46:49.441Z,14.48
2022-11-08T00:49:16.080Z,14.70
2022-11-08T00:51:42.519Z,14.45
2022-11-08T00:54:13.330Z,14.32
2022-11-08T00:56:39.890Z,14.90
2022-11-08T00:59:06.454Z,14.34
2022-11-08T01:01:33.061Z,14.34
2022-11-08T01:03:59.614Z,14.35
2022-11-08T01:06:26.788Z,14.60
2022-11-08T01:08:55.512Z,14.49
2022-11-08T01:11:23.488Z,14.22
2022-11-08T01:13:51.097Z,14.05
2022-11-08T01:16:22.739Z,14.61
2022-11-08T01:18:50.531Z,14.23
2022-11-08T01:21:17.672Z,14.26
2022-11-08T01:23:45.394Z,14.10
2022-11-08T01:26:17.522Z,14.03
2022-11-08T01:28:44.420Z,14.02
2022-11-08T01:31:19.442Z,14.44
2022-11-08T01:33:51.065Z,14.54
2022-11-08T01:36:20.940Z,14.25
2022-11-08T01:38:47.870Z,14.35
2022-11-08T01:41:15.730Z,14.34
2022-11-08T01:43:51.800Z,14.80
2022-11-08T01:46:18.318Z,14.39
2022-11-08T01:49:03.756Z,14.48
2022-11-08T01:51:44.806Z,14.47
2022-11-08T01:54:14.618Z,14.48
2022-11-08T01:56:41.753Z,14.65
2022-11-08T01:59:10.461Z,14.70
2022-11-08T02:01:37.135Z,14.92
2022-11-08T02:04:04.155Z,14.50
2022-11-08T02:06:33.049Z,14.82
2022-11-08T02:09:01.660Z,14.89
2022-11-08T02:11:28.549Z,14.59
2022-11-08T02:13:55.729Z,14.75
2022-11-08T02:16:22.249Z,14.74
2022-11-08T02:18:49.238Z,14.62
2022-11-08T02:21:23.928Z,14.74
2022-11-08T02:23:52.181Z,14.82
2022-11-08T02:26:22.339Z,14.76
2022-11-08T02:28:49.283Z,15.16
2022-11-08T02:31:18.379Z,15.31
2022-11-08T02:33:45.405Z,15.45
2022-11-08T02:36:16.126Z,15.18
2022-11-08T02:38:45.826Z,15.15
2022-11-08T02:41:12.613Z,15.01
2022-11-08T02:43:39.108Z,15.17
2022-11-08T02:46:05.796Z,15.24
2022-11-08T02:48:32.287Z,15.04
2022-11-08T02:50:59.425Z,15.81
2022-11-08T02:53:25.945Z,14.95
2022-11-08T02:55:52.428Z,15.27
2022-11-08T02:58:19.315Z,15.06
2022-11-08T03:00:46.558Z,15.05
2022-11-08T03:03:13.203Z,14.81
2022-11-08T03:05:39.686Z,15.03
2022-11-08T03:08:06.185Z,15.03
2022-11-08T03:10:32.673Z,15.14
2022-11-08T03:13:01.665Z,15.21
2022-11-08T03:15:29.391Z,15.54
2022-11-08T03:17:56.394Z,14.89
2022-11-08T03:20:23.936Z,14.92
2022-11-08T03:22:59.495Z,15.33
2022-11-08T03:25:26.231Z,15.51
2022-11-08T03:27:52.844Z,15.41
2022-11-08T03:30:20.082Z,14.93
2022-11-08T03:32:47.241Z,14.78
2022-11-08T03:35:14.536Z,14.89
2022-11-08T03:37:41.179Z,14.62
2022-11-08T03:40:08.532Z,14.56
2022-11-08T03:42:34.994Z,14.35
2022-11-08T03:45:01.570Z,14.49
2022-11-08T03:47:28.024Z,14.81
2022-11-08T03:49:54.606Z,15.00
2022-11-08T03:52:21.023Z,14.50
2022-11-08T03:54:47.463Z,14.72
2022-11-08T03:57:13.928Z,14.49
2022-11-08T03:59:40.497Z,14.48
2022-11-08T04:02:07.034Z,14.78
2022-11-08T04:04:33.524Z,14.27
2022-11-08T04:07:00.020Z,14.51
2022-11-08T04:09:26.572Z,14.29
2022-11-08T04:12:11.523Z,14.61
2022-11-08T04:14:56.962Z,14.38
2022-11-08T04:17:43.546Z,14.23
2022-11-08T04:20:29.138Z,14.48
2022-11-08T04:22:55.671Z,14.85
2022-11-08T04:25:22.306Z,14.42
2022-11-08T04:27:48.812Z,14.46
2022-11-08T04:30:15.277Z,14.10
2022-11-08T04:32:41.730Z,14.83
2022-11-08T04:35:08.272Z,14.36
2022-11-08T04:37:34.919Z,14.68
2022-11-08T04:40:01.422Z,14.33
2022-11-08T04:42:27.865Z,14.92
2022-11-08T04:44:54.333Z,14.55
2022-11-08T04:47:20.834Z,15.03
2022-11-08T04:49:47.266Z,14.71
2022-11-08T04:52:15.822Z,14.53
2022-11-08T04:54:45.414Z,14.18
2022-11-08T04:57:12.745Z,14.50
2022-11-08T04:59:39.387Z,14.37
2022-11-08T05:02:06.459Z,14.81
2022-11-08T05:04:32.992Z,14.87
2022-11-08T05:06:59.456Z,14.83
2022-11-08T05:09:25.935Z,15.06
2022-11-08T05:11:52.380Z,14.78
2022-11-08T05:14:18.963Z,14.73
2022-11-08T05:16:45.504Z,14.56
2022-11-08T05:19:13.355Z,14.31
2022-11-08T05:22:15.505Z,14.09
2022-11-08T05:24:42.030Z,13.85
2022-11-08T05:27:08.954Z,14.10
2022-11-08T05:29:38.628Z,14.09
2022-11-08T05:32:08.475Z,13.91
2022-11-08T05:34:34.980Z,13.77
2022-11-08T05:37:01.448Z,14.14
2022-11-08T05:39:31.934Z,13.74
2022-11-08T05:41:58.880Z,13.73
2022-11-08T05:44:25.400Z,13.79
2022-11-08T05:46:51.962Z,13.55
2022-11-08T05:49:18.469Z,13.37
2022-11-08T05:51:44.942Z,13.17
2022-11-08T05:54:13.008Z,13.07
2022-11-08T05:56:39.862Z,13.14
2022-11-08T05:59:06.470Z,12.94
2022-11-08T06:01:33.233Z,13.36
2022-11-08T06:03:59.822Z,12.86
2022-11-08T06:06:26.460Z,12.95
2022-11-08T06:08:53.792Z,13.19
2022-11-08T06:11:24.617Z,13.33
2022-11-08T06:13:51.855Z,13.37
2022-11-08T06:16:19.114Z,13.18
2022-11-08T06:18:47.034Z,12.87
2022-11-08T06:21:15.937Z,13.18
2022-11-08T06:23:42.645Z,13.13
2022-11-08T06:26:09.688Z,13.09
2022-11-08T06:28:36.453Z,13.08
2022-11-08T06:31:04.412Z,13.12
2022-11-08T06:33:31.577Z,13.50
2022-11-08T06:35:58.080Z,13.32
2022-11-08T06:38:24.659Z,13.30
2022-11-08T06:40:51.170Z,13.06
2022-11-08T06:43:19.900Z,12.85
2022-11-08T06:45:47.393Z,13.04
2022-11-08T06:48:13.883Z,13.24
2022-11-08T06:50:41.786Z,13.29
2022-11-08T06:53:10.725Z,13.37
2022-11-08T06:55:37.402Z,13.53
2022-11-08T06:58:04.264Z,13.67
2022-11-08T07:00:31.505Z,13.25
2022-11-08T07:03:00.110Z,13.56
2022-11-08T07:05:27.761Z,13.46
2022-11-08T07:07:54.717Z,13.68
2022-11-08T07:10:22.789Z,14.03
2022-11-08T07:12:50.873Z,14.12
2022-11-08T07:15:17.680Z,14.16
2022-11-08T07:17:44.115Z,13.87
2022-11-08T07:20:11.049Z,13.76
2022-11-08T07:22:37.602Z,14.22
2022-11-08T07:25:04.405Z,13.71
2022-11-08T07:27:30.900Z,13.61
2022-11-08T07:29:57.342Z,14.22
2022-11-08T07:32:23.801Z,14.16
2022-11-08T07:34:50.263Z,13.84
2022-11-08T07:37:16.757Z,13.81
2022-11-08T07:39:43.286Z,14.32
2022-11-08T07:42:09.788Z,14.66
2022-11-08T07:44:36.239Z,15.09
2022-11-08T07:47:02.707Z,14.89
2022-11-08T07:49:29.146Z,14.78
2022-11-08T07:51:55.540Z,15.25
2022-11-08T07:54:22.042Z,15.13
2022-11-08T07:56:48.491Z,15.28
2022-11-08T07:59:15.157Z,15.72
2022-11-08T08:01:41.760Z,15.68
2022-11-08T08:04:09.347Z,16.12
2022-11-08T08:06:35.954Z,15.87
2022-11-08T08:09:02.392Z,16.00
2022-11-08T08:11:33.521Z,16.26
2022-11-08T08:14:00.307Z,16.02
2022-11-08T08:16:26.813Z,15.93
2022-11-08T08:18:56.329Z,16.24
2022-11-08T08:21:23.228Z,16.69
2022-11-08T08:23:49.738Z,16.16
2022-11-08T08:26:16.246Z,16.18
2022-11-08T08:28:42.697Z,17.07
2022-11-08T08:31:09.186Z,16.94
2022-11-08T08:33:37.386Z,17.15
2022-11-08T08:36:04.196Z,17.48
2022-11-08T08:38:32.532Z,17.58
2022-11-08T08:40:59.578Z,18.25
2022-11-08T08:43:27.548Z,19.45
2022-11-08T08:45:54.714Z,18.66
2022-11-08T08:48:21.500Z,18.96
2022-11-08T08:50:48.317Z,19.53
2022-11-08T08:53:15.080Z,19.13
2022-11-08T08:55:42.835Z,18.87
2022-11-08T08:58:10.843Z,19.26
2022-11-08T09:03:24.138Z,20.65
2022-11-08T09:05:50.848Z,20.94
2022-11-08T09:08:17.324Z,21.43
2022-11-08T09:10:43.786Z,20.85
2022-11-08T09:13:10.564Z,21.22
2022-11-08T09:15:39.198Z,23.83
2022-11-08T09:18:05.961Z,23.46
2022-11-08T09:20:32.436Z,23.63
2022-11-08T09:23:03.131Z,23.19
2022-11-08T09:25:29.710Z,22.26
2022-11-08T09:27:56.254Z,21.23
2022-11-08T09:30:22.971Z,20.46
2022-11-08T09:33:04.976Z,21.29
2022-11-08T09:35:31.587Z,23.08
2022-11-08T09:37:58.653Z,21.11
2022-11-08T09:40:54.241Z,22.15
2022-11-08T09:43:57.205Z,22.00
2022-11-08T09:46:49.554Z,21.73
2022-11-08T09:49:31.690Z,21.00
2022-11-08T09:51:59.508Z,20.62
2022-11-08T09:54:35.355Z,19.26
2022-11-08T09:57:05.303Z,19.75
2022-11-08T09:59:38.257Z,21.03
2022-11-08T10:02:16.311Z,22.85
2022-11-08T10:04:42.971Z,22.94
2022-11-08T10:07:28.367Z,22.37
2022-11-08T10:10:16.685Z,23.53
2022-11-08T10:13:13.166Z,24.82
2022-11-08T10:16:00.633Z,24.53
2022-11-08T10:19:06.478Z,27.23
2022-11-08T10:22:21.660Z,26.92
2022-11-08T10:24:58.260Z,24.51
2022-11-08T10:27:37.493Z,24.05
2022-11-08T10:30:07.068Z,22.21
2022-11-08T10:32:34.797Z,21.75
2022-11-08T10:35:04.357Z,21.59
2022-11-08T10:37:31.717Z,20.73
2022-11-08T10:40:01.682Z,20.19
2022-11-08T10:42:38.283Z,19.77
2022-11-08T10:45:05.573Z,19.84
2022-11-08T10:47:33.141Z,20.36
2022-11-08T10:50:04.110Z,19.99
2022-11-08T10:52:38.319Z,18.99
2022-11-08T10:55:09.740Z,19.15
2022-11-08T10:57:42.922Z,19.24
2022-11-08T11:00:21.967Z,19.20
2022-11-08T11:02:53.723Z,19.26
2022-11-08T11:05:26.101Z,19.53
2022-11-08T11:08:02.323Z,19.26
2022-11-08T11:10:50.222Z,19.71
2022-11-08T11:13:29.053Z,19.37
2022-11-08T11:16:00.677Z,18.46
2022-11-08T11:18:37.449Z,18.82
2022-11-08T11:21:13.320Z,18.51
2022-11-08T11:23:39.765Z,18.46
2022-11-08T11:26:08.338Z,18.09
2022-11-08T11:28:36.153Z,18.39
2022-11-08T11:31:09.845Z,18.81
2022-11-08T11:33:43.790Z,18.65
2022-11-08T11:36:13.990Z,18.29
2022-11-08T11:38:46.840Z,18.22
2022-11-08T11:41:17.924Z,17.84
2022-11-08T11:43:56.262Z,18.42
2022-11-08T11:46:30.333Z,18.63
2022-11-08T11:49:08.589Z,18.73
2022-11-08T11:51:35.263Z,18.45
2022-11-08T11:54:03.081Z,18.61
2022-11-08T11:56:41.813Z,18.56
2022-11-08T11:59:22.623Z,18.43
2022-11-08T12:02:07.015Z,18.57
2022-11-08T12:05:04.573Z,18.70
2022-11-08T12:07:35.079Z,18.34
2022-11-08T12:10:17.680Z,18.82
2022-11-08T12:13:04.103Z,18.46
2022-11-08T12:15:47.696Z,18.11
2022-11-08T12:18:41.400Z,18.56
2022-11-08T12:21:15.704Z,17.94
2022-11-08T12:24:20.991Z,18.35
2022-11-08T12:26:56.676Z,18.48
2022-11-08T12:29:30.280Z,18.04
2022-11-08T12:32:04.399Z,18.66
2022-11-08T12:34:44.042Z,18.14
2022-11-08T12:37:13.493Z,18.80
2022-11-08T12:39:48.168Z,18.43
2022-11-08T12:42:37.228Z,19.01
2022-11-08T12:45:19.375Z,18.38
2022-11-08T12:48:01.102Z,18.67
2022-11-08T12:50:50.337Z,18.84
2022-11-08T12:53:33.009Z,19.33
2022-11-08T12:56:01.372Z,18.91
2022-11-08T12:58:36.952Z,19.47
2022-11-08T13:01:07.014Z,19.48
2022-11-08T13:03:42.941Z,19.27
2022-11-08T13:06:51.080Z,19.61
2022-11-08T13:09:37.725Z,19.58
2022-11-08T13:12:49.949Z,18.70
2022-11-08T13:15:23.997Z,18.64
2022-11-08T13:18:11.724Z,18.73
2022-11-08T13:20:42.512Z,18.79
2022-11-08T13:23:13.263Z,19.47
2022-11-08T13:25:41.856Z,19.71
2022-11-08T13:28:40.413Z,19.64
2022-11-08T13:32:02.673Z,18.38
2022-11-08T13:34:48.084Z,18.88
2022-11-08T13:37:45.653Z,18.61
2022-11-08T14:02:47.993Z,18.10
2022-11-08T14:05:20.628Z,18.24
2022-11-08T14:08:08.926Z,18.81
2022-11-08T14:10:40.100Z,18.19
2022-11-08T14:13:15.628Z,18.29
2022-11-08T14:16:05.564Z,17.81
2022-11-08T14:18:32.992Z,18.26
2022-11-08T14:20:59.746Z,17.67
2022-11-08T14:23:32.174Z,17.52
2022-11-08T14:26:04.754Z,18.05
2022-11-08T14:28:31.216Z,17.74
2022-11-08T14:39:17.576Z,17.60
2022-11-08T14:41:48.561Z,17.67
2022-11-08T14:44:16.335Z,17.62
2022-11-08T14:50:34.667Z,17.79
2022-11-08T14:53:26.952Z,17.56
2022-11-08T14:56:02.435Z,17.58
2022-11-08T14:58:29.761Z,17.54
2022-11-08T15:00:56.556Z,17.71
2022-11-08T15:03:27.146Z,17.33
2022-11-08T15:05:59.900Z,17.23
2022-11-08T15:08:36.077Z,17.31
2022-11-08T15:11:08.177Z,17.20
2022-11-08T15:13:50.701Z,17.65
2022-11-08T15:16:18.102Z,17.33
2022-11-08T15:18:44.954Z,16.99
2022-11-08T15:21:11.384Z,17.52
2022-11-08T15:23:47.905Z,17.48
2022-11-08T15:26:43.890Z,17.26
2022-11-08T15:29:13.332Z,17.09
2022-11-08T15:31:55.679Z,17.26
2022-11-08T15:34:30.933Z,17.11
2022-11-08T15:36:57.427Z,17.14
2022-11-08T15:39:38.972Z,17.19
2022-11-08T15:42:13.935Z,16.75
2022-11-08T15:45:02.347Z,17.07
2022-11-08T15:47:41.003Z,16.96
2022-11-08T15:50:30.867Z,16.92
2022-11-08T15:53:02.242Z,16.91
2022-11-08T15:55:30.590Z,16.87
2022-11-08T15:57:58.409Z,16.89
2022-11-08T16:00:27.382Z,16.91
2022-11-08T16:02:54.971Z,17.00
2022-11-08T16:05:29.779Z,16.94
2022-11-08T16:07:56.245Z,16.76
2022-11-08T16:10:30.293Z,16.81
2022-11-08T16:12:58.810Z,16.70
2022-11-08T16:15:27.025Z,16.79
2022-11-08T16:17:53.492Z,16.92
2022-11-08T16:20:25.123Z,16.87
2022-11-08T16:22:52.017Z,17.02
2022-11-08T16:25:18.535Z,17.22
2022-11-08T16:27:47.155Z,16.53
2022-11-08T16:30:16.284Z,16.70
2022-11-08T16:32:43.205Z,16.94
2022-11-08T16:35:12.655Z,16.82
2022-11-08T16:37:39.365Z,16.64
2022-11-08T16:40:21.515Z,17.16
2022-11-08T16:42:50.557Z,16.62
2022-11-08T16:45:27.989Z,16.79
2022-11-08T16:48:04.628Z,16.51
2022-11-08T16:50:31.148Z,16.82
2022-11-08T16:52:58.022Z,16.75
2022-11-08T16:55:24.588Z,16.50
2022-11-08T16:57:50.996Z,16.53
2022-11-08T17:00:20.044Z,16.87
2022-11-08T17:02:52.606Z,16.90
2022-11-08T17:05:22.694Z,16.96
2022-11-08T17:07:53.068Z,17.01
2022-11-08T17:10:28.037Z,17.31
2022-11-08T17:12:54.867Z,17.18
2022-11-08T17:15:26.409Z,17.00
2022-11-08T17:17:57.592Z,17.06
2022-11-08T17:20:25.135Z,16.97
2022-11-08T17:22:52.232Z,17.02
2022-11-08T17:25:21.335Z,17.20
2022-11-08T17:27:49.929Z,17.27
2022-11-08T17:30:17.115Z,17.09
2022-11-08T17:32:44.827Z,17.10
2022-11-08T17:35:12.676Z,16.79
2022-11-08T17:37:39.376Z,17.40
2022-11-08T17:40:07.271Z,17.15
2022-11-08T17:42:37.302Z,17.17
2022-11-08T17:45:09.364Z,17.16
2022-11-08T17:47:39.182Z,17.10
2022-11-08T17:50:06.463Z,17.40
2022-11-08T17:52:33.151Z,17.67
2022-11-08T17:54:59.645Z,17.17
2022-11-08T17:57:26.202Z,17.23
2022-11-08T17:59:53.015Z,16.91
2022-11-08T18:02:19.522Z,17.09
2022-11-08T18:04:46.754Z,17.49
2022-11-08T18:07:13.293Z,17.55
2022-11-08T18:09:39.838Z,17.55
2022-11-08T18:12:06.397Z,17.28
2022-11-08T18:14:32.992Z,17.41
2022-11-08T18:16:59.824Z,16.99
2022-11-08T18:19:26.334Z,17.50
2022-11-08T18:21:52.964Z,17.41
2022-11-08T18:24:19.616Z,17.43
2022-11-08T18:26:46.065Z,17.60
2022-11-08T18:29:12.561Z,17.32
2022-11-08T18:31:39.021Z,17.75
2022-11-08T18:34:05.629Z,17.49
2022-11-08T18:36:32.219Z,17.42
2022-11-08T18:39:24.064Z,17.15
2022-11-08T18:41:53.209Z,17.16
2022-11-08T18:44:19.752Z,17.18
2022-11-08T18:46:46.203Z,17.08
2022-11-08T18:49:12.744Z,17.15
2022-11-08T18:51:39.281Z,16.99
2022-11-08T18:54:08.118Z,17.22
2022-11-08T18:56:34.685Z,17.24
2022-11-08T18:59:01.261Z,17.16
2022-11-08T19:01:27.875Z,17.20
2022-11-08T19:03:54.449Z,17.10
2022-11-08T19:06:20.871Z,17.14
2022-11-08T19:08:47.350Z,16.86
2022-11-08T19:11:14.500Z,17.13
2022-11-08T19:13:41.572Z,17.27
2022-11-08T19:16:17.135Z,17.05
2022-11-08T19:18:44.752Z,17.56
2022-11-08T19:21:17.362Z,17.65
2022-11-08T19:23:44.147Z,17.31
2022-11-08T19:26:16.119Z,17.24
2022-11-08T19:28:45.392Z,17.20
2022-11-08T19:31:13.600Z,17.16
2022-11-08T19:33:40.100Z,17.42
2022-11-08T19:36:09.508Z,17.22
2022-11-08T19:38:37.112Z,17.06
2022-11-08T19:41:04.929Z,17.23
2022-11-08T19:43:34.661Z,17.56
2022-11-08T19:46:03.352Z,17.07
2022-11-08T19:48:37.693Z,17.39
2022-11-08T19:51:06.277Z,17.01
2022-11-08T19:53:33.242Z,17.10
2022-11-08T19:56:09.205Z,17.30
2022-11-08T19:58:36.805Z,17.34
2022-11-08T20:01:08.035Z,17.40
2022-11-08T20:03:36.874Z,17.52
2022-11-08T20:06:04.193Z,17.48
2022-11-08T20:08:31.561Z,17.45
2022-11-08T20:10:58.651Z,17.62
2022-11-08T20:13:25.577Z,17.39
2022-11-08T20:15:52.234Z,17.46
2022-11-08T20:18:18.982Z,17.59
2022-11-08T20:20:45.770Z,17.60
2022-11-08T20:23:15.497Z,17.54
2022-11-08T20:25:41.954Z,17.70
2022-11-08T20:28:08.723Z,17.41
2022-11-08T20:30:35.399Z,17.56
2022-11-08T20:33:01.962Z,17.83
2022-11-08T20:35:28.467Z,17.22
2022-11-08T20:37:58.285Z,17.71
2022-11-08T20:40:24.759Z,17.32
2022-11-08T20:42:51.299Z,17.56
2022-11-08T20:45:17.833Z,17.46
2022-11-08T20:47:44.463Z,17.47
2022-11-08T20:50:11.077Z,17.27
2022-11-08T20:52:37.655Z,17.41
2022-11-08T20:55:04.433Z,17.29
2022-11-08T20:57:31.078Z,17.36
2022-11-08T20:59:57.660Z,17.30
2022-11-08T21:02:31.154Z,17.35
2022-11-08T21:04:57.602Z,17.28
2022-11-08T21:10:40.860Z,16.94
2022-11-08T21:12:57.427Z,17.26
2022-11-08T21:15:27.069Z,16.85
2022-11-08T21:17:53.729Z,16.94
2022-11-08T21:20:20.190Z,16.93
2022-11-08T21:22:46.599Z,16.95
2022-11-08T21:25:13.041Z,17.02
2022-11-08T21:27:39.490Z,16.44
2022-11-08T21:30:06.736Z,16.54
2022-11-08T21:32:33.233Z,17.33
2022-11-08T21:34:59.940Z,16.88
2022-11-08T21:37:26.397Z,17.19
2022-11-08T21:39:52.904Z,17.08
2022-11-08T21:42:19.411Z,17.17
2022-11-08T21:44:45.858Z,16.94
2022-11-08T21:47:12.322Z,16.82
2022-11-08T21:49:38.818Z,16.86
2022-11-08T21:52:05.470Z,16.90
2022-11-08T21:54:31.918Z,17.13
2022-11-08T21:56:58.362Z,16.91
2022-11-08T21:59:24.782Z,16.89
2022-11-08T22:01:51.308Z,16.97
2022-11-08T22:04:18.093Z,16.93
2022-11-08T22:06:47.630Z,16.91
2022-11-08T22:09:14.352Z,16.93
2022-11-08T22:11:41.766Z,16.93
2022-11-08T22:14:08.356Z,16.93
2022-11-08T22:16:34.830Z,17.40
2022-11-08T22:19:05.717Z,17.22
2022-11-08T22:21:39.932Z,17.19
2022-11-08T22:24:18.278Z,16.99
2022-11-08T22:26:45.069Z,17.26
2022-11-08T22:29:11.597Z,16.95
2022-11-08T22:31:38.854Z,17.20
2022-11-08T22:34:07.842Z,17.20
2022-11-08T22:36:36.955Z,17.41
2022-11-08T22:39:05.643Z,17.38
2022-11-08T22:41:32.253Z,17.09
2022-11-08T22:43:58.753Z,16.85
2022-11-08T22:46:25.242Z,17.11
2022-11-08T22:48:51.943Z,17.20
2022-11-08T22:51:18.360Z,17.02
2022-11-08T22:53:44.883Z,16.84
2022-11-08T22:56:12.070Z,16.86
2022-11-08T22:58:39.083Z,16.97
2022-11-08T23:01:15.336Z,17.22
2022-11-08T23:03:45.117Z,16.99
2022-11-08T23:06:12.075Z,16.93
2022-11-08T23:08:38.641Z,17.00
2022-11-08T23:11:24.270Z,16.87
2022-11-08T23:14:09.530Z,16.89
2022-11-08T23:16:40.015Z,16.93
2022-11-08T23:19:30.660Z,16.87
2022-11-08T23:22:16.033Z,16.93
2022-11-08T23:24:43.045Z,16.66
2022-11-08T23:27:29.611Z,17.04
2022-11-08T23:30:14.686Z,17.08
2022-11-08T23:32:43.978Z,16.84
2022-11-08T23:35:11.351Z,16.73
2022-11-08T23:37:38.177Z,17.16
2022-11-08T23:40:25.232Z,16.83
2022-11-08T23:43:29.337Z,16.94
2022-11-08T23:45:56.001Z,17.03
2022-11-08T23:48:22.488Z,17.31
2022-11-08T23:50:53.766Z,17.05
2022-11-08T23:53:22.208Z,16.88
2022-11-08T23:55:48.864Z,16.78
2022-11-08T23:58:15.403Z,16.85
